sensor_id;sensor_type;location;lat;lon;timestamp;P1;durP1;ratioP1;P2;durP2;ratioP2
20411;SDS011;10365;52.578;8.138;2023-07-13T00:00:15;27.17;;;19.65;;
20411;SDS011;10365;52.578;8.138;2023-07-13T00:02:41;29.95;;;18.27;;
20411;SDS011;10365;52.578;8.138;2023-07-13T00:05:07;36.60;;;18.35;;
20411;SDS011;10365;52.578;8.138;2023-07-13T00:07:33;27.42;;;16.33;;
20411;SDS011;10365;52.578;8.138;2023-07-13T00:09:58;30.05;;;16.67;;
20411;SDS011;10365;52.578;8.138;2023-07-13T00:12:28;26.20;;;14.93;;
20411;SDS011;10365;52.578;8.138;2023-07-13T00:14:57;32.28;;;16.25;;
20411;SDS011;10365;52.578;8.138;2023-07-13T00:17:23;33.45;;;16.80;;
20411;SDS011;10365;52.578;8.138;2023-07-13T00:19:48;33.53;;;16.30;;
20411;SDS011;10365;52.578;8.138;2023-07-13T00:22:13;26.63;;;15.90;;
20411;SDS011;10365;52.578;8.138;2023-07-13T00:24:38;28.35;;;15.00;;
20411;SDS011;10365;52.578;8.138;2023-07-13T00:27:07;31.02;;;15.82;;
20411;SDS011;10365;52.578;8.138;2023-07-13T00:29:33;35.13;;;15.02;;
20411;SDS011;10365;52.578;8.138;2023-07-13T00:31:59;27.13;;;13.93;;
20411;SDS011;10365;52.578;8.138;2023-07-13T00:34:24;21.42;;;12.98;;
20411;SDS011;10365;52.578;8.138;2023-07-13T00:36:49;26.38;;;13.02;;
20411;SDS011;10365;52.578;8.138;2023-07-13T00:39:15;36.90;;;13.20;;
20411;SDS011;10365;52.578;8.138;2023-07-13T00:41:40;22.13;;;12.18;;
20411;SDS011;10365;52.578;8.138;2023-07-13T00:44:08;24.83;;;12.32;;
20411;SDS011;10365;52.578;8.138;2023-07-13T00:46:34;26.45;;;11.60;;
20411;SDS011;10365;52.578;8.138;2023-07-13T00:49:02;21.95;;;11.40;;
20411;SDS011;10365;52.578;8.138;2023-07-13T00:52:03;20.92;;;11.07;;
20411;SDS011;10365;52.578;8.138;2023-07-13T00:54:22;28.10;;;11.60;;
20411;SDS011;10365;52.578;8.138;2023-07-13T00:56:50;23.52;;;10.27;;
20411;SDS011;10365;52.578;8.138;2023-07-13T00:59:16;29.63;;;9.70;;
20411;SDS011;10365;52.578;8.138;2023-07-13T01:01:45;17.05;;;8.90;;
20411;SDS011;10365;52.578;8.138;2023-07-13T01:04:10;19.75;;;9.32;;
20411;SDS011;10365;52.578;8.138;2023-07-13T01:06:36;18.52;;;8.55;;
20411;SDS011;10365;52.578;8.138;2023-07-13T01:09:02;19.55;;;8.30;;
20411;SDS011;10365;52.578;8.138;2023-07-13T01:11:27;23.60;;;8.20;;
20411;SDS011;10365;52.578;8.138;2023-07-13T01:13:53;15.13;;;7.05;;
20411;SDS011;10365;52.578;8.138;2023-07-13T01:16:26;28.75;;;8.43;;
20411;SDS011;10365;52.578;8.138;2023-07-13T01:18:52;19.67;;;7.43;;
20411;SDS011;10365;52.578;8.138;2023-07-13T01:21:17;21.95;;;7.28;;
20411;SDS011;10365;52.578;8.138;2023-07-13T01:23:44;17.00;;;7.32;;
20411;SDS011;10365;52.578;8.138;2023-07-13T01:26:09;17.65;;;7.22;;
20411;SDS011;10365;52.578;8.138;2023-07-13T01:28:36;17.27;;;7.78;;
20411;SDS011;10365;52.578;8.138;2023-07-13T01:31:02;20.92;;;6.72;;
20411;SDS011;10365;52.578;8.138;2023-07-13T01:33:28;18.75;;;6.53;;
20411;SDS011;10365;52.578;8.138;2023-07-13T01:35:55;11.20;;;5.80;;
20411;SDS011;10365;52.578;8.138;2023-07-13T01:38:22;25.00;;;6.22;;
20411;SDS011;10365;52.578;8.138;2023-07-13T01:40:48;14.57;;;6.18;;
20411;SDS011;10365;52.578;8.138;2023-07-13T01:43:13;20.17;;;6.32;;
20411;SDS011;10365;52.578;8.138;2023-07-13T01:45:39;15.77;;;6.68;;
20411;SDS011;10365;52.578;8.138;2023-07-13T01:48:04;13.15;;;5.93;;
20411;SDS011;10365;52.578;8.138;2023-07-13T01:50:32;23.63;;;6.97;;
20411;SDS011;10365;52.578;8.138;2023-07-13T01:52:57;18.75;;;6.63;;
20411;SDS011;10365;52.578;8.138;2023-07-13T01:55:22;22.48;;;6.05;;
20411;SDS011;10365;52.578;8.138;2023-07-13T01:57:48;19.27;;;6.05;;
20411;SDS011;10365;52.578;8.138;2023-07-13T02:00:14;22.88;;;6.75;;
20411;SDS011;10365;52.578;8.138;2023-07-13T02:02:42;17.15;;;5.82;;
20411;SDS011;10365;52.578;8.138;2023-07-13T02:05:09;20.52;;;6.28;;
20411;SDS011;10365;52.578;8.138;2023-07-13T02:07:34;18.48;;;6.82;;
20411;SDS011;10365;52.578;8.138;2023-07-13T02:09:59;17.25;;;7.30;;
20411;SDS011;10365;52.578;8.138;2023-07-13T02:12:25;20.25;;;7.55;;
20411;SDS011;10365;52.578;8.138;2023-07-13T02:14:50;12.90;;;6.00;;
20411;SDS011;10365;52.578;8.138;2023-07-13T02:17:15;13.52;;;6.15;;
20411;SDS011;10365;52.578;8.138;2023-07-13T02:19:41;17.20;;;6.63;;
20411;SDS011;10365;52.578;8.138;2023-07-13T02:22:06;17.58;;;6.43;;
20411;SDS011;10365;52.578;8.138;2023-07-13T02:24:32;24.63;;;6.85;;
20411;SDS011;10365;52.578;8.138;2023-07-13T02:26:57;14.10;;;6.72;;
20411;SDS011;10365;52.578;8.138;2023-07-13T02:29:22;17.33;;;6.00;;
20411;SDS011;10365;52.578;8.138;2023-07-13T02:31:48;17.02;;;6.38;;
20411;SDS011;10365;52.578;8.138;2023-07-13T02:34:14;15.40;;;7.28;;
20411;SDS011;10365;52.578;8.138;2023-07-13T02:36:39;19.05;;;6.78;;
20411;SDS011;10365;52.578;8.138;2023-07-13T02:39:05;20.67;;;6.50;;
20411;SDS011;10365;52.578;8.138;2023-07-13T02:41:34;23.77;;;6.45;;
20411;SDS011;10365;52.578;8.138;2023-07-13T02:44:00;15.07;;;6.18;;
20411;SDS011;10365;52.578;8.138;2023-07-13T02:46:37;17.85;;;6.78;;
20411;SDS011;10365;52.578;8.138;2023-07-13T02:49:03;24.25;;;7.35;;
20411;SDS011;10365;52.578;8.138;2023-07-13T02:51:29;16.70;;;6.18;;
20411;SDS011;10365;52.578;8.138;2023-07-13T02:53:55;24.77;;;7.43;;
20411;SDS011;10365;52.578;8.138;2023-07-13T02:56:26;15.52;;;7.35;;
20411;SDS011;10365;52.578;8.138;2023-07-13T02:58:52;19.25;;;6.20;;
20411;SDS011;10365;52.578;8.138;2023-07-13T03:01:18;14.52;;;6.63;;
20411;SDS011;10365;52.578;8.138;2023-07-13T03:03:48;17.13;;;6.57;;
20411;SDS011;10365;52.578;8.138;2023-07-13T03:06:13;14.15;;;6.65;;
20411;SDS011;10365;52.578;8.138;2023-07-13T03:08:49;22.70;;;6.70;;
20411;SDS011;10365;52.578;8.138;2023-07-13T03:11:16;23.63;;;6.55;;
20411;SDS011;10365;52.578;8.138;2023-07-13T03:13:44;20.15;;;6.35;;
20411;SDS011;10365;52.578;8.138;2023-07-13T03:16:11;22.23;;;8.02;;
20411;SDS011;10365;52.578;8.138;2023-07-13T03:18:37;25.30;;;7.72;;
20411;SDS011;10365;52.578;8.138;2023-07-13T03:21:05;18.63;;;7.10;;
20411;SDS011;10365;52.578;8.138;2023-07-13T03:23:31;16.60;;;6.38;;
20411;SDS011;10365;52.578;8.138;2023-07-13T03:26:06;21.25;;;7.35;;
20411;SDS011;10365;52.578;8.138;2023-07-13T03:28:31;22.27;;;6.53;;
20411;SDS011;10365;52.578;8.138;2023-07-13T03:31:04;25.67;;;7.07;;
20411;SDS011;10365;52.578;8.138;2023-07-13T03:33:31;22.92;;;7.63;;
20411;SDS011;10365;52.578;8.138;2023-07-13T03:35:56;19.75;;;7.47;;
20411;SDS011;10365;52.578;8.138;2023-07-13T03:38:22;13.15;;;6.90;;
20411;SDS011;10365;52.578;8.138;2023-07-13T03:40:48;22.95;;;7.10;;
20411;SDS011;10365;52.578;8.138;2023-07-13T03:43:14;22.95;;;7.20;;
20411;SDS011;10365;52.578;8.138;2023-07-13T03:45:39;19.35;;;6.95;;
20411;SDS011;10365;52.578;8.138;2023-07-13T03:48:05;22.02;;;7.10;;
20411;SDS011;10365;52.578;8.138;2023-07-13T03:50:31;16.08;;;7.15;;
20411;SDS011;10365;52.578;8.138;2023-07-13T03:52:57;24.88;;;8.23;;
20411;SDS011;10365;52.578;8.138;2023-07-13T03:55:22;21.83;;;8.25;;
20411;SDS011;10365;52.578;8.138;2023-07-13T03:57:47;19.77;;;7.18;;
20411;SDS011;10365;52.578;8.138;2023-07-13T04:00:13;19.38;;;8.13;;
20411;SDS011;10365;52.578;8.138;2023-07-13T04:02:41;19.52;;;7.70;;
20411;SDS011;10365;52.578;8.138;2023-07-13T04:05:07;22.27;;;7.95;;
20411;SDS011;10365;52.578;8.138;2023-07-13T04:07:32;17.83;;;7.30;;
20411;SDS011;10365;52.578;8.138;2023-07-13T04:09:59;23.08;;;7.95;;
20411;SDS011;10365;52.578;8.138;2023-07-13T04:12:24;22.00;;;8.10;;
20411;SDS011;10365;52.578;8.138;2023-07-13T04:14:49;19.65;;;7.72;;
20411;SDS011;10365;52.578;8.138;2023-07-13T04:17:15;17.52;;;7.68;;
20411;SDS011;10365;52.578;8.138;2023-07-13T04:19:40;25.10;;;6.70;;
20411;SDS011;10365;52.578;8.138;2023-07-13T04:22:05;24.67;;;7.57;;
20411;SDS011;10365;52.578;8.138;2023-07-13T04:24:31;18.80;;;7.22;;
20411;SDS011;10365;52.578;8.138;2023-07-13T04:26:56;23.30;;;6.75;;
20411;SDS011;10365;52.578;8.138;2023-07-13T04:29:24;18.65;;;6.22;;
20411;SDS011;10365;52.578;8.138;2023-07-13T04:31:49;17.85;;;5.90;;
20411;SDS011;10365;52.578;8.138;2023-07-13T04:34:15;9.88;;;5.35;;
20411;SDS011;10365;52.578;8.138;2023-07-13T04:36:41;20.80;;;4.85;;
20411;SDS011;10365;52.578;8.138;2023-07-13T04:39:07;14.70;;;5.72;;
20411;SDS011;10365;52.578;8.138;2023-07-13T04:41:32;10.65;;;4.78;;
20411;SDS011;10365;52.578;8.138;2023-07-13T04:43:57;16.92;;;5.43;;
20411;SDS011;10365;52.578;8.138;2023-07-13T04:46:23;14.05;;;5.10;;
20411;SDS011;10365;52.578;8.138;2023-07-13T04:48:48;16.45;;;5.03;;
20411;SDS011;10365;52.578;8.138;2023-07-13T04:51:14;14.00;;;5.22;;
20411;SDS011;10365;52.578;8.138;2023-07-13T04:53:39;12.52;;;4.65;;
20411;SDS011;10365;52.578;8.138;2023-07-13T04:56:04;14.27;;;4.32;;
20411;SDS011;10365;52.578;8.138;2023-07-13T04:58:30;11.75;;;4.38;;
20411;SDS011;10365;52.578;8.138;2023-07-13T05:01:02;17.48;;;5.20;;
20411;SDS011;10365;52.578;8.138;2023-07-13T05:03:28;15.23;;;4.95;;
20411;SDS011;10365;52.578;8.138;2023-07-13T05:05:56;18.80;;;4.38;;
20411;SDS011;10365;52.578;8.138;2023-07-13T05:08:22;12.63;;;4.00;;
20411;SDS011;10365;52.578;8.138;2023-07-13T05:10:47;17.75;;;3.97;;
20411;SDS011;10365;52.578;8.138;2023-07-13T05:13:12;10.85;;;3.92;;
20411;SDS011;10365;52.578;8.138;2023-07-13T05:15:38;12.05;;;3.50;;
20411;SDS011;10365;52.578;8.138;2023-07-13T05:18:03;10.98;;;3.72;;
20411;SDS011;10365;52.578;8.138;2023-07-13T05:20:29;12.32;;;3.25;;
20411;SDS011;10365;52.578;8.138;2023-07-13T05:22:54;11.68;;;2.92;;
20411;SDS011;10365;52.578;8.138;2023-07-13T05:25:20;9.63;;;2.35;;
20411;SDS011;10365;52.578;8.138;2023-07-13T05:27:45;12.20;;;3.00;;
20411;SDS011;10365;52.578;8.138;2023-07-13T05:30:11;10.05;;;2.60;;
20411;SDS011;10365;52.578;8.138;2023-07-13T05:32:37;10.95;;;2.08;;
20411;SDS011;10365;52.578;8.138;2023-07-13T05:35:02;13.73;;;2.72;;
20411;SDS011;10365;52.578;8.138;2023-07-13T05:37:27;9.32;;;2.25;;
20411;SDS011;10365;52.578;8.138;2023-07-13T05:39:53;10.38;;;2.60;;
20411;SDS011;10365;52.578;8.138;2023-07-13T05:42:18;8.13;;;2.22;;
20411;SDS011;10365;52.578;8.138;2023-07-13T05:44:43;7.22;;;2.63;;
20411;SDS011;10365;52.578;8.138;2023-07-13T05:47:08;11.05;;;2.42;;
20411;SDS011;10365;52.578;8.138;2023-07-13T05:49:34;9.52;;;2.80;;
20411;SDS011;10365;52.578;8.138;2023-07-13T05:51:59;8.60;;;2.75;;
20411;SDS011;10365;52.578;8.138;2023-07-13T05:54:24;14.75;;;3.05;;
20411;SDS011;10365;52.578;8.138;2023-07-13T05:56:50;10.90;;;2.50;;
20411;SDS011;10365;52.578;8.138;2023-07-13T05:59:15;10.25;;;2.47;;
20411;SDS011;10365;52.578;8.138;2023-07-13T06:01:41;7.13;;;2.78;;
20411;SDS011;10365;52.578;8.138;2023-07-13T06:04:06;7.50;;;2.65;;
20411;SDS011;10365;52.578;8.138;2023-07-13T06:06:31;13.02;;;2.83;;
20411;SDS011;10365;52.578;8.138;2023-07-13T06:08:57;10.55;;;2.60;;
20411;SDS011;10365;52.578;8.138;2023-07-13T06:11:23;13.85;;;2.63;;
20411;SDS011;10365;52.578;8.138;2023-07-13T06:13:48;9.18;;;2.58;;
20411;SDS011;10365;52.578;8.138;2023-07-13T06:16:14;10.82;;;2.42;;
20411;SDS011;10365;52.578;8.138;2023-07-13T06:18:40;10.25;;;2.10;;
20411;SDS011;10365;52.578;8.138;2023-07-13T06:21:09;9.23;;;2.97;;
20411;SDS011;10365;52.578;8.138;2023-07-13T06:23:34;10.43;;;2.67;;
20411;SDS011;10365;52.578;8.138;2023-07-13T06:25:59;10.40;;;2.90;;
20411;SDS011;10365;52.578;8.138;2023-07-13T06:28:25;9.10;;;2.58;;
20411;SDS011;10365;52.578;8.138;2023-07-13T06:30:50;7.15;;;2.50;;
20411;SDS011;10365;52.578;8.138;2023-07-13T06:33:15;8.88;;;3.22;;
20411;SDS011;10365;52.578;8.138;2023-07-13T06:35:41;11.82;;;2.92;;
20411;SDS011;10365;52.578;8.138;2023-07-13T06:38:07;8.43;;;2.70;;
20411;SDS011;10365;52.578;8.138;2023-07-13T06:40:32;6.53;;;3.22;;
20411;SDS011;10365;52.578;8.138;2023-07-13T06:43:00;15.93;;;2.88;;
20411;SDS011;10365;52.578;8.138;2023-07-13T06:45:26;13.63;;;3.10;;
20411;SDS011;10365;52.578;8.138;2023-07-13T06:47:51;8.15;;;2.92;;
20411;SDS011;10365;52.578;8.138;2023-07-13T06:50:16;9.00;;;3.13;;
20411;SDS011;10365;52.578;8.138;2023-07-13T06:52:41;11.63;;;3.30;;
20411;SDS011;10365;52.578;8.138;2023-07-13T06:55:07;10.75;;;3.33;;
20411;SDS011;10365;52.578;8.138;2023-07-13T06:57:33;14.70;;;3.45;;
20411;SDS011;10365;52.578;8.138;2023-07-13T06:59:58;8.20;;;2.88;;
20411;SDS011;10365;52.578;8.138;2023-07-13T07:02:24;9.40;;;2.80;;
20411;SDS011;10365;52.578;8.138;2023-07-13T07:04:49;8.70;;;2.13;;
20411;SDS011;10365;52.578;8.138;2023-07-13T07:07:15;9.38;;;2.70;;
20411;SDS011;10365;52.578;8.138;2023-07-13T07:09:40;11.73;;;2.53;;
20411;SDS011;10365;52.578;8.138;2023-07-13T07:12:05;9.73;;;2.60;;
20411;SDS011;10365;52.578;8.138;2023-07-13T07:14:31;13.15;;;3.28;;
20411;SDS011;10365;52.578;8.138;2023-07-13T07:16:56;10.05;;;2.70;;
20411;SDS011;10365;52.578;8.138;2023-07-13T07:19:23;8.88;;;2.60;;
20411;SDS011;10365;52.578;8.138;2023-07-13T07:21:48;9.30;;;2.83;;
20411;SDS011;10365;52.578;8.138;2023-07-13T07:24:14;10.13;;;3.47;;
20411;SDS011;10365;52.578;8.138;2023-07-13T07:26:40;10.77;;;3.22;;
20411;SDS011;10365;52.578;8.138;2023-07-13T07:29:06;9.40;;;2.83;;
20411;SDS011;10365;52.578;8.138;2023-07-13T07:31:31;9.98;;;2.80;;
20411;SDS011;10365;52.578;8.138;2023-07-13T07:33:56;10.35;;;2.45;;
20411;SDS011;10365;52.578;8.138;2023-07-13T07:36:21;9.35;;;2.88;;
20411;SDS011;10365;52.578;8.138;2023-07-13T07:38:47;14.50;;;3.47;;
20411;SDS011;10365;52.578;8.138;2023-07-13T07:41:12;10.75;;;2.58;;
20411;SDS011;10365;52.578;8.138;2023-07-13T07:43:38;15.55;;;2.95;;
20411;SDS011;10365;52.578;8.138;2023-07-13T07:46:03;7.45;;;2.92;;
20411;SDS011;10365;52.578;8.138;2023-07-13T07:48:28;12.38;;;3.42;;
20411;SDS011;10365;52.578;8.138;2023-07-13T07:50:53;9.35;;;2.85;;
20411;SDS011;10365;52.578;8.138;2023-07-13T07:53:19;10.07;;;2.85;;
20411;SDS011;10365;52.578;8.138;2023-07-13T07:55:44;10.48;;;2.92;;
20411;SDS011;10365;52.578;8.138;2023-07-13T07:58:10;9.10;;;2.95;;
20411;SDS011;10365;52.578;8.138;2023-07-13T08:00:35;11.65;;;3.17;;
20411;SDS011;10365;52.578;8.138;2023-07-13T08:03:04;10.35;;;2.75;;
20411;SDS011;10365;52.578;8.138;2023-07-13T08:05:29;6.97;;;2.55;;
20411;SDS011;10365;52.578;8.138;2023-07-13T08:07:54;7.43;;;3.42;;
20411;SDS011;10365;52.578;8.138;2023-07-13T08:10:20;10.10;;;3.20;;
20411;SDS011;10365;52.578;8.138;2023-07-13T08:12:45;7.75;;;2.95;;
20411;SDS011;10365;52.578;8.138;2023-07-13T08:15:11;11.45;;;3.50;;
20411;SDS011;10365;52.578;8.138;2023-07-13T08:17:37;9.63;;;3.28;;
20411;SDS011;10365;52.578;8.138;2023-07-13T08:20:02;11.00;;;3.17;;
20411;SDS011;10365;52.578;8.138;2023-07-13T08:22:27;10.20;;;3.00;;
20411;SDS011;10365;52.578;8.138;2023-07-13T08:24:53;7.28;;;2.70;;
20411;SDS011;10365;52.578;8.138;2023-07-13T08:27:24;12.93;;;3.30;;
20411;SDS011;10365;52.578;8.138;2023-07-13T08:29:50;7.10;;;2.90;;
20411;SDS011;10365;52.578;8.138;2023-07-13T08:32:18;10.45;;;3.40;;
20411;SDS011;10365;52.578;8.138;2023-07-13T08:34:44;11.82;;;2.72;;
20411;SDS011;10365;52.578;8.138;2023-07-13T08:37:09;9.85;;;2.90;;
20411;SDS011;10365;52.578;8.138;2023-07-13T08:39:35;7.63;;;2.42;;
20411;SDS011;10365;52.578;8.138;2023-07-13T08:42:05;12.15;;;3.30;;
20411;SDS011;10365;52.578;8.138;2023-07-13T08:47:06;10.05;;;2.63;;
20411;SDS011;10365;52.578;8.138;2023-07-13T08:49:33;6.90;;;2.38;;
20411;SDS011;10365;52.578;8.138;2023-07-13T08:52:04;7.53;;;2.70;;
20411;SDS011;10365;52.578;8.138;2023-07-13T08:54:32;9.18;;;2.50;;
20411;SDS011;10365;52.578;8.138;2023-07-13T08:56:59;11.07;;;2.88;;
20411;SDS011;10365;52.578;8.138;2023-07-13T08:59:27;9.38;;;2.55;;
20411;SDS011;10365;52.578;8.138;2023-07-13T09:04:22;6.72;;;2.47;;
20411;SDS011;10365;52.578;8.138;2023-07-13T09:12:03;11.02;;;3.28;;
20411;SDS011;10365;52.578;8.138;2023-07-13T09:16:57;13.55;;;2.33;;
20411;SDS011;10365;52.578;8.138;2023-07-13T09:19:25;5.88;;;1.90;;
20411;SDS011;10365;52.578;8.138;2023-07-13T09:21:51;5.55;;;2.00;;
20411;SDS011;10365;52.578;8.138;2023-07-13T09:26:43;6.78;;;2.50;;
20411;SDS011;10365;52.578;8.138;2023-07-13T09:29:20;7.13;;;2.47;;
20411;SDS011;10365;52.578;8.138;2023-07-13T09:31:49;8.10;;;2.33;;
20411;SDS011;10365;52.578;8.138;2023-07-13T09:34:17;16.33;;;2.10;;
20411;SDS011;10365;52.578;8.138;2023-07-13T09:36:42;4.43;;;2.40;;
20411;SDS011;10365;52.578;8.138;2023-07-13T09:44:35;6.22;;;2.35;;
20411;SDS011;10365;52.578;8.138;2023-07-13T09:47:01;7.68;;;2.20;;
20411;SDS011;10365;52.578;8.138;2023-07-13T09:49:28;8.65;;;2.38;;
20411;SDS011;10365;52.578;8.138;2023-07-13T09:52:00;7.78;;;2.70;;
20411;SDS011;10365;52.578;8.138;2023-07-13T09:54:27;7.40;;;2.47;;
20411;SDS011;10365;52.578;8.138;2023-07-13T09:56:56;6.85;;;2.03;;
20411;SDS011;10365;52.578;8.138;2023-07-13T09:59:22;7.50;;;2.72;;
20411;SDS011;10365;52.578;8.138;2023-07-13T10:01:49;8.90;;;2.65;;
20411;SDS011;10365;52.578;8.138;2023-07-13T10:04:16;8.45;;;2.60;;
20411;SDS011;10365;52.578;8.138;2023-07-13T10:06:43;8.40;;;2.72;;
20411;SDS011;10365;52.578;8.138;2023-07-13T10:09:09;6.60;;;2.17;;
20411;SDS011;10365;52.578;8.138;2023-07-13T10:11:35;6.70;;;2.65;;
20411;SDS011;10365;52.578;8.138;2023-07-13T10:14:21;7.60;;;2.38;;
20411;SDS011;10365;52.578;8.138;2023-07-13T10:16:48;4.03;;;2.10;;
20411;SDS011;10365;52.578;8.138;2023-07-13T10:19:18;5.95;;;2.35;;
20411;SDS011;10365;52.578;8.138;2023-07-13T10:21:49;5.63;;;2.40;;
20411;SDS011;10365;52.578;8.138;2023-07-13T10:24:21;6.53;;;2.28;;
20411;SDS011;10365;52.578;8.138;2023-07-13T10:29:32;4.72;;;2.28;;
20411;SDS011;10365;52.578;8.138;2023-07-13T10:32:00;7.72;;;2.58;;
20411;SDS011;10365;52.578;8.138;2023-07-13T10:34:25;5.53;;;2.00;;
20411;SDS011;10365;52.578;8.138;2023-07-13T10:36:51;6.95;;;2.03;;
20411;SDS011;10365;52.578;8.138;2023-07-13T10:39:20;8.43;;;2.83;;
20411;SDS011;10365;52.578;8.138;2023-07-13T10:41:53;6.32;;;2.70;;
20411;SDS011;10365;52.578;8.138;2023-07-13T10:44:24;9.10;;;2.72;;
20411;SDS011;10365;52.578;8.138;2023-07-13T10:46:52;8.10;;;2.60;;
20411;SDS011;10365;52.578;8.138;2023-07-13T10:49:18;8.05;;;2.67;;
20411;SDS011;10365;52.578;8.138;2023-07-13T10:51:44;6.28;;;2.47;;
20411;SDS011;10365;52.578;8.138;2023-07-13T10:54:11;5.60;;;2.13;;
20411;SDS011;10365;52.578;8.138;2023-07-13T10:56:38;7.28;;;2.40;;
20411;SDS011;10365;52.578;8.138;2023-07-13T11:01:41;6.45;;;2.38;;
20411;SDS011;10365;52.578;8.138;2023-07-13T11:04:12;7.80;;;2.50;;
20411;SDS011;10365;52.578;8.138;2023-07-13T11:06:38;6.00;;;3.05;;
20411;SDS011;10365;52.578;8.138;2023-07-13T11:11:43;7.00;;;2.58;;
20411;SDS011;10365;52.578;8.138;2023-07-13T11:16:52;6.18;;;2.42;;
20411;SDS011;10365;52.578;8.138;2023-07-13T11:24:47;2.67;;;0.80;;
20411;SDS011;10365;52.578;8.138;2023-07-13T11:27:21;2.53;;;0.88;;
20411;SDS011;10365;52.578;8.138;2023-07-13T11:29:48;2.20;;;0.75;;
20411;SDS011;10365;52.578;8.138;2023-07-13T11:32:21;1.17;;;0.70;;
20411;SDS011;10365;52.578;8.138;2023-07-13T11:34:47;1.77;;;0.90;;
20411;SDS011;10365;52.578;8.138;2023-07-13T11:37:13;1.60;;;0.90;;
20411;SDS011;10365;52.578;8.138;2023-07-13T11:39:41;1.23;;;0.65;;
20411;SDS011;10365;52.578;8.138;2023-07-13T11:42:09;6.47;;;1.70;;
20411;SDS011;10365;52.578;8.138;2023-07-13T11:44:41;4.20;;;1.10;;
20411;SDS011;10365;52.578;8.138;2023-07-13T11:47:10;7.70;;;2.05;;
20411;SDS011;10365;52.578;8.138;2023-07-13T11:49:45;3.80;;;1.73;;
20411;SDS011;10365;52.578;8.138;2023-07-13T11:52:17;3.30;;;1.58;;
20411;SDS011;10365;52.578;8.138;2023-07-13T11:54:46;5.95;;;2.28;;
20411;SDS011;10365;52.578;8.138;2023-07-13T11:57:29;2.42;;;1.67;;
20411;SDS011;10365;52.578;8.138;2023-07-13T11:59:56;4.60;;;1.80;;
20411;SDS011;10365;52.578;8.138;2023-07-13T12:02:29;6.68;;;2.05;;
20411;SDS011;10365;52.578;8.138;2023-07-13T12:04:56;5.18;;;2.05;;
20411;SDS011;10365;52.578;8.138;2023-07-13T12:07:22;4.15;;;2.05;;
20411;SDS011;10365;52.578;8.138;2023-07-13T12:09:47;4.55;;;2.08;;
20411;SDS011;10365;52.578;8.138;2023-07-13T12:12:17;3.33;;;1.95;;
20411;SDS011;10365;52.578;8.138;2023-07-13T12:14:42;6.60;;;2.10;;
20411;SDS011;10365;52.578;8.138;2023-07-13T12:17:15;5.43;;;2.42;;
20411;SDS011;10365;52.578;8.138;2023-07-13T12:19:41;8.93;;;3.85;;
20411;SDS011;10365;52.578;8.138;2023-07-13T12:22:08;10.07;;;4.30;;
20411;SDS011;10365;52.578;8.138;2023-07-13T12:24:36;7.53;;;4.50;;
20411;SDS011;10365;52.578;8.138;2023-07-13T12:27:02;11.90;;;6.25;;
20411;SDS011;10365;52.578;8.138;2023-07-13T12:29:28;9.70;;;5.70;;
20411;SDS011;10365;52.578;8.138;2023-07-13T12:31:54;8.98;;;4.90;;
20411;SDS011;10365;52.578;8.138;2023-07-13T12:34:22;8.40;;;5.30;;
20411;SDS011;10365;52.578;8.138;2023-07-13T12:36:49;8.00;;;5.28;;
20411;SDS011;10365;52.578;8.138;2023-07-13T12:39:16;9.63;;;6.17;;
20411;SDS011;10365;52.578;8.138;2023-07-13T12:41:48;12.60;;;5.15;;
20411;SDS011;10365;52.578;8.138;2023-07-13T12:44:15;11.98;;;7.15;;
20411;SDS011;10365;52.578;8.138;2023-07-13T12:46:50;8.95;;;4.80;;
20411;SDS011;10365;52.578;8.138;2023-07-13T12:49:16;8.30;;;5.00;;
20411;SDS011;10365;52.578;8.138;2023-07-13T12:51:42;9.48;;;5.40;;
20411;SDS011;10365;52.578;8.138;2023-07-13T12:54:13;9.82;;;5.40;;
20411;SDS011;10365;52.578;8.138;2023-07-13T12:56:39;10.43;;;7.75;;
20411;SDS011;10365;52.578;8.138;2023-07-13T12:59:05;9.00;;;5.88;;
20411;SDS011;10365;52.578;8.138;2023-07-13T13:01:32;9.90;;;6.50;;
20411;SDS011;10365;52.578;8.138;2023-07-13T13:04:00;11.65;;;6.00;;
20411;SDS011;10365;52.578;8.138;2023-07-13T13:06:26;9.32;;;6.38;;
20411;SDS011;10365;52.578;8.138;2023-07-13T13:08:53;9.98;;;5.18;;
20411;SDS011;10365;52.578;8.138;2023-07-13T13:11:21;7.13;;;5.20;;
20411;SDS011;10365;52.578;8.138;2023-07-13T13:13:48;12.02;;;3.58;;
20411;SDS011;10365;52.578;8.138;2023-07-13T13:18:39;4.45;;;2.75;;
20411;SDS011;10365;52.578;8.138;2023-07-13T13:21:04;4.03;;;1.88;;
20411;SDS011;10365;52.578;8.138;2023-07-13T13:23:29;3.88;;;2.13;;
20411;SDS011;10365;52.578;8.138;2023-07-13T13:25:55;3.75;;;1.60;;
20411;SDS011;10365;52.578;8.138;2023-07-13T13:28:20;3.20;;;1.25;;
20411;SDS011;10365;52.578;8.138;2023-07-13T13:30:47;4.55;;;1.88;;
20411;SDS011;10365;52.578;8.138;2023-07-13T13:33:14;2.95;;;1.73;;
20411;SDS011;10365;52.578;8.138;2023-07-13T13:35:40;3.67;;;1.80;;
20411;SDS011;10365;52.578;8.138;2023-07-13T13:40:39;3.78;;;2.00;;
20411;SDS011;10365;52.578;8.138;2023-07-13T13:43:10;3.17;;;1.80;;
20411;SDS011;10365;52.578;8.138;2023-07-13T13:45:38;3.05;;;1.90;;
20411;SDS011;10365;52.578;8.138;2023-07-13T13:48:04;3.15;;;2.08;;
20411;SDS011;10365;52.578;8.138;2023-07-13T13:50:30;3.38;;;2.10;;
20411;SDS011;10365;52.578;8.138;2023-07-13T13:52:55;5.07;;;2.40;;
20411;SDS011;10365;52.578;8.138;2023-07-13T13:55:21;8.65;;;3.35;;
20411;SDS011;10365;52.578;8.138;2023-07-13T13:57:48;4.30;;;3.10;;
20411;SDS011;10365;52.578;8.138;2023-07-13T14:00:14;6.25;;;3.28;;
20411;SDS011;10365;52.578;8.138;2023-07-13T14:02:40;5.45;;;3.65;;
20411;SDS011;10365;52.578;8.138;2023-07-13T14:05:09;5.22;;;3.40;;
20411;SDS011;10365;52.578;8.138;2023-07-13T14:07:35;5.43;;;3.67;;
20411;SDS011;10365;52.578;8.138;2023-07-13T14:10:00;5.07;;;4.10;;
20411;SDS011;10365;52.578;8.138;2023-07-13T14:12:27;6.70;;;4.07;;
20411;SDS011;10365;52.578;8.138;2023-07-13T14:14:54;5.72;;;3.83;;
20411;SDS011;10365;52.578;8.138;2023-07-13T14:17:20;8.55;;;3.95;;
20411;SDS011;10365;52.578;8.138;2023-07-13T14:19:50;4.35;;;3.22;;
20411;SDS011;10365;52.578;8.138;2023-07-13T14:22:23;4.65;;;3.58;;
20411;SDS011;10365;52.578;8.138;2023-07-13T14:24:50;12.05;;;3.78;;
20411;SDS011;10365;52.578;8.138;2023-07-13T14:27:15;5.82;;;3.25;;
20411;SDS011;10365;52.578;8.138;2023-07-13T14:29:40;7.35;;;2.85;;
20411;SDS011;10365;52.578;8.138;2023-07-13T14:32:10;5.30;;;2.50;;
20411;SDS011;10365;52.578;8.138;2023-07-13T14:34:35;4.15;;;2.72;;
20411;SDS011;10365;52.578;8.138;2023-07-13T14:37:01;3.65;;;2.85;;
20411;SDS011;10365;52.578;8.138;2023-07-13T14:39:26;4.40;;;2.70;;
20411;SDS011;10365;52.578;8.138;2023-07-13T14:41:54;5.28;;;3.35;;
20411;SDS011;10365;52.578;8.138;2023-07-13T14:44:21;8.95;;;4.15;;
20411;SDS011;10365;52.578;8.138;2023-07-13T14:46:48;5.90;;;3.67;;
20411;SDS011;10365;52.578;8.138;2023-07-13T14:51:55;8.75;;;3.72;;
20411;SDS011;10365;52.578;8.138;2023-07-13T14:54:22;6.55;;;4.05;;
20411;SDS011;10365;52.578;8.138;2023-07-13T14:56:48;7.70;;;4.60;;
20411;SDS011;10365;52.578;8.138;2023-07-13T14:59:13;10.10;;;4.90;;
20411;SDS011;10365;52.578;8.138;2023-07-13T15:01:39;10.10;;;4.50;;
20411;SDS011;10365;52.578;8.138;2023-07-13T15:04:05;7.70;;;5.22;;
20411;SDS011;10365;52.578;8.138;2023-07-13T15:06:30;7.75;;;4.78;;
20411;SDS011;10365;52.578;8.138;2023-07-13T15:08:56;10.27;;;4.15;;
20411;SDS011;10365;52.578;8.138;2023-07-13T15:11:22;6.53;;;4.28;;
20411;SDS011;10365;52.578;8.138;2023-07-13T15:13:47;5.40;;;3.70;;
20411;SDS011;10365;52.578;8.138;2023-07-13T15:16:15;7.38;;;4.68;;
20411;SDS011;10365;52.578;8.138;2023-07-13T15:18:40;5.40;;;4.13;;
20411;SDS011;10365;52.578;8.138;2023-07-13T15:21:08;6.97;;;4.18;;